createdAt,value
2023-06-15T00:02:20.078Z,100114.41
2023-06-15T00:04:47.915Z,100110.88
2023-06-15T00:07:15.692Z,100113.56
2023-06-15T00:09:44.149Z,100104.94
2023-06-15T00:12:11.795Z,100113.56
2023-06-15T00:14:39.483Z,100104.41
2023-06-15T00:17:09.545Z,100117.56
2023-06-15T00:19:37.495Z,100128.28
2023-06-15T00:22:05.904Z,100116.75
2023-06-15T00:24:33.714Z,100126.34
2023-06-15T00:27:01.420Z,100116.19
2023-06-15T00:29:29.039Z,100115.78
2023-06-15T00:31:57.151Z,100113.09
2023-06-15T00:34:25.171Z,100120.16
2023-06-15T00:36:52.755Z,100115.63
2023-06-15T00:39:20.769Z,100118.44
2023-06-15T00:41:48.613Z,100119.41
2023-06-15T00:44:16.183Z,100125.94
2023-06-15T00:46:43.813Z,100134.09
2023-06-15T00:49:11.458Z,100132.41
2023-06-15T00:51:39.981Z,100129.16
2023-06-15T00:54:08.649Z,100130.16
2023-06-15T00:56:36.266Z,100131.97
2023-06-15T00:59:04.302Z,100138.44
2023-06-15T01:01:31.986Z,100132.34
2023-06-15T01:04:01.510Z,100123.47
2023-06-15T01:06:32.507Z,100130.81
2023-06-15T01:09:00.076Z,100134.47
2023-06-15T01:11:29.716Z,100131.94
2023-06-15T01:13:58.845Z,100134.75
2023-06-15T01:16:26.991Z,100132.50
2023-06-15T01:18:57.637Z,100131.38
2023-06-15T01:21:25.344Z,100135.72
2023-06-15T01:23:53.007Z,100131.03
2023-06-15T01:26:22.114Z,100133.13
2023-06-15T01:28:50.811Z,100127.09
2023-06-15T01:31:18.661Z,100129.19
2023-06-15T01:33:46.623Z,100134.69
2023-06-15T01:36:14.591Z,100137.63
2023-06-15T01:38:42.656Z,100133.56
2023-06-15T01:41:10.277Z,100134.50
2023-06-15T01:43:37.915Z,100137.47
2023-06-15T01:46:05.651Z,100134.34
2023-06-15T01:48:33.694Z,100137.44
2023-06-15T01:51:01.453Z,100135.03
2023-06-15T01:53:29.041Z,100138.25
2023-06-15T01:55:56.821Z,100135.00
2023-06-15T01:58:24.405Z,100136.97
2023-06-15T02:00:52.816Z,100138.94
2023-06-15T02:03:20.543Z,100135.69
2023-06-15T02:05:48.202Z,100140.31
2023-06-15T02:08:15.861Z,100139.72
2023-06-15T02:10:43.532Z,100140.69
2023-06-15T02:13:11.567Z,100134.53
2023-06-15T02:15:40.152Z,100133.41
2023-06-15T02:18:13.732Z,100148.31
2023-06-15T02:20:41.682Z,100152.31
2023-06-15T02:23:09.476Z,100141.91
2023-06-15T02:25:37.502Z,100146.16
2023-06-15T02:28:05.070Z,100147.13
2023-06-15T02:30:32.669Z,100142.78
2023-06-15T02:33:01.910Z,100141.06
2023-06-15T02:35:29.726Z,100145.69
2023-06-15T02:37:57.752Z,100144.28
2023-06-15T02:40:25.431Z,100147.22
2023-06-15T02:42:53.044Z,100152.84
2023-06-15T02:45:22.223Z,100152.97
2023-06-15T02:47:49.908Z,100153.25
2023-06-15T02:50:19.421Z,100151.69
2023-06-15T02:52:48.026Z,100153.91
2023-06-15T02:55:15.956Z,100157.84
2023-06-15T02:57:43.870Z,100158.38
2023-06-15T03:00:15.163Z,100151.56
2023-06-15T03:02:44.748Z,100153.81
2023-06-15T03:05:12.476Z,100150.66
2023-06-15T03:07:41.938Z,100158.19
2023-06-15T03:10:09.779Z,100154.34
2023-06-15T03:12:37.407Z,100159.16
2023-06-15T03:15:05.431Z,100165.59
2023-06-15T03:17:34.113Z,100164.03
2023-06-15T03:20:01.902Z,100161.47
2023-06-15T03:22:29.624Z,100159.78
2023-06-15T03:24:57.268Z,100159.78
2023-06-15T03:27:24.942Z,100163.44
2023-06-15T03:29:53.030Z,100155.41
2023-06-15T03:32:21.349Z,100161.75
2023-06-15T03:34:49.322Z,100167.09
2023-06-15T03:37:16.934Z,100161.00
2023-06-15T03:39:44.937Z,100168.19
2023-06-15T03:42:12.559Z,100172.16
2023-06-15T03:44:40.164Z,100167.34
2023-06-15T03:47:07.966Z,100160.75
2023-06-15T03:49:35.840Z,100158.06
2023-06-15T03:52:03.830Z,100159.19
2023-06-15T03:54:31.504Z,100161.28
2023-06-15T03:56:59.085Z,100166.88
2023-06-15T03:59:26.876Z,100161.81
2023-06-15T04:01:54.516Z,100157.56
2023-06-15T04:04:22.556Z,100163.16
2023-06-15T04:06:54.313Z,100160.25
2023-06-15T04:09:22.444Z,100172.50
2023-06-15T04:11:50.035Z,100173.06
2023-06-15T04:14:19.381Z,100171.31
2023-06-15T04:16:47.456Z,100171.53
2023-06-15T04:19:15.418Z,100172.72
2023-06-15T04:21:43.030Z,100170.22
2023-06-15T04:24:10.914Z,100170.53
2023-06-15T04:26:38.570Z,100178.59
2023-06-15T04:29:06.577Z,100172.44
2023-06-15T04:31:35.170Z,100174.06
2023-06-15T04:34:06.016Z,100176.63
2023-06-15T04:36:35.972Z,100173.84
2023-06-15T04:39:04.029Z,100172.75
2023-06-15T04:41:32.530Z,100177.16
2023-06-15T04:44:00.236Z,100174.50
2023-06-15T04:46:29.288Z,100179.00
2023-06-15T04:48:57.676Z,100171.16
2023-06-15T04:51:25.349Z,100171.31
2023-06-15T04:53:53.340Z,100173.44
2023-06-15T04:56:22.525Z,100178.25
2023-06-15T04:58:50.312Z,100188.25
2023-06-15T05:01:17.973Z,100184.16
2023-06-15T05:03:45.754Z,100181.63
2023-06-15T05:06:14.103Z,100181.59
2023-06-15T05:08:41.781Z,100181.91
2023-06-15T05:11:09.411Z,100180.16
2023-06-15T05:13:37.169Z,100183.53
2023-06-15T05:16:04.830Z,100170.22
2023-06-15T05:18:33.405Z,100176.13
2023-06-15T05:21:01.235Z,100171.78
2023-06-15T05:23:30.169Z,100169.38
2023-06-15T05:25:58.104Z,100172.66
2023-06-15T05:28:28.241Z,100178.91
2023-06-15T05:30:56.486Z,100171.03
2023-06-15T05:33:24.239Z,100172.47
2023-06-15T05:35:52.076Z,100175.63
2023-06-15T05:38:21.621Z,100173.41
2023-06-15T05:40:49.838Z,100174.53
2023-06-15T05:43:17.754Z,100180.03
2023-06-15T05:48:13.427Z,100176.50
2023-06-15T05:50:41.335Z,100169.47
2023-06-15T05:53:09.010Z,100170.88
2023-06-15T05:55:36.908Z,100168.88
2023-06-15T05:58:04.712Z,100178.53
2023-06-15T06:00:33.074Z,100170.50
2023-06-15T06:03:02.840Z,100174.41
2023-06-15T06:05:31.387Z,100170.72
2023-06-15T06:07:59.427Z,100173.44
2023-06-15T06:10:27.145Z,100172.50
2023-06-15T06:12:55.078Z,100171.50
2023-06-15T06:15:23.381Z,100174.25
2023-06-15T06:18:07.928Z,100173.59
2023-06-15T06:20:38.210Z,100176.47
2023-06-15T06:23:06.051Z,100171.25
2023-06-15T06:25:34.050Z,100175.13
2023-06-15T06:28:01.976Z,100180.69
2023-06-15T06:30:29.801Z,100168.38
2023-06-15T06:33:00.611Z,100169.22
2023-06-15T06:35:29.533Z,100170.53
2023-06-15T06:37:57.686Z,100172.53
2023-06-15T06:40:27.081Z,100181.94
2023-06-15T06:42:55.032Z,100183.09
2023-06-15T06:45:23.615Z,100177.47
2023-06-15T06:47:51.622Z,100178.94
2023-06-15T06:50:19.858Z,100179.78
2023-06-15T06:52:47.664Z,100178.72
2023-06-15T06:55:15.881Z,100186.63
2023-06-15T06:57:44.384Z,100185.72
2023-06-15T07:00:12.313Z,100181.28
2023-06-15T07:02:40.434Z,100179.06
2023-06-15T07:05:08.453Z,100187.31
2023-06-15T07:07:36.579Z,100189.59
2023-06-15T07:10:05.044Z,100194.25
2023-06-15T07:12:32.956Z,100186.41
2023-06-15T07:15:00.711Z,100180.19
2023-06-15T07:17:28.523Z,100183.31
2023-06-15T07:19:56.527Z,100183.31
2023-06-15T07:22:25.589Z,100179.78
2023-06-15T07:24:53.487Z,100181.22
2023-06-15T07:27:21.911Z,100184.28
2023-06-15T07:29:50.327Z,100169.47
2023-06-15T07:32:18.123Z,100177.50
2023-06-15T07:34:46.641Z,100169.44
2023-06-15T07:37:14.590Z,100183.09
2023-06-15T07:39:42.875Z,100181.97
2023-06-15T07:42:10.868Z,100178.94
2023-06-15T07:44:38.877Z,100182.22
2023-06-15T07:47:08.070Z,100182.91
2023-06-15T07:49:45.705Z,100177.03
2023-06-15T07:52:14.744Z,100177.56
2023-06-15T07:54:43.427Z,100183.72
2023-06-15T07:57:11.877Z,100181.34
2023-06-15T07:59:39.771Z,100179.31
2023-06-15T08:02:07.818Z,100170.84
2023-06-15T08:04:35.868Z,100173.88
2023-06-15T08:07:03.694Z,100176.91
2023-06-15T08:09:32.183Z,100182.03
2023-06-15T08:12:01.544Z,100167.50
2023-06-15T08:14:29.587Z,100168.44
2023-06-15T08:16:58.003Z,100171.44
2023-06-15T08:19:26.657Z,100166.88
2023-06-15T08:21:55.149Z,100168.59
2023-06-15T08:24:23.353Z,100162.81
2023-06-15T08:26:51.370Z,100164.97
2023-06-15T08:29:23.990Z,100166.47
2023-06-15T08:31:53.010Z,100166.72
2023-06-15T08:34:21.286Z,100162.16
2023-06-15T08:36:50.730Z,100160.53
2023-06-15T08:39:19.118Z,100170.22
2023-06-15T08:41:47.076Z,100163.56
2023-06-15T08:44:15.061Z,100161.91
2023-06-15T08:46:44.217Z,100161.09
2023-06-15T08:49:12.180Z,100165.06
2023-06-15T08:51:39.936Z,100169.06
2023-06-15T08:54:09.951Z,100165.94
2023-06-15T08:56:39.739Z,100160.91
2023-06-15T08:59:08.456Z,100158.13
2023-06-15T09:01:41.181Z,100159.16
2023-06-15T09:04:09.151Z,100158.09
2023-06-15T09:06:37.255Z,100161.03
2023-06-15T09:09:05.588Z,100159.53
2023-06-15T09:11:34.384Z,100156.78
2023-06-15T09:14:02.256Z,100154.03
2023-06-15T09:16:30.534Z,100151.06
2023-06-15T09:18:58.723Z,100156.66
2023-06-15T09:21:27.795Z,100162.53
2023-06-15T09:23:56.187Z,100151.34
2023-06-15T09:26:24.578Z,100151.72
2023-06-15T09:28:53.786Z,100154.81
2023-06-15T09:31:21.860Z,100145.91
2023-06-15T09:33:51.984Z,100149.16
2023-06-15T09:36:20.915Z,100151.19
2023-06-15T09:38:49.953Z,100145.56
2023-06-15T09:41:18.184Z,100142.19
2023-06-15T09:43:46.168Z,100147.84
2023-06-15T09:46:14.289Z,100141.88
2023-06-15T09:48:42.469Z,100151.44
2023-06-15T09:51:10.379Z,100139.13
2023-06-15T09:53:38.940Z,100139.09
2023-06-15T09:56:17.208Z,100147.16
2023-06-15T09:58:55.362Z,100145.56
2023-06-15T10:01:23.511Z,100140.97
2023-06-15T10:03:53.953Z,100137.06
2023-06-15T10:06:22.291Z,100137.56
2023-06-15T10:08:53.061Z,100135.50
2023-06-15T10:11:21.051Z,100131.81
2023-06-15T10:13:49.101Z,100130.25
2023-06-15T10:16:18.085Z,100135.53
2023-06-15T10:18:45.926Z,100131.22
2023-06-15T10:21:14.014Z,100131.03
2023-06-15T10:23:45.037Z,100130.16
2023-06-15T10:26:12.968Z,100126.72
2023-06-15T10:28:43.591Z,100125.78
2023-06-15T10:31:11.413Z,100122.22
2023-06-15T10:33:39.308Z,100128.06
2023-06-15T10:36:07.309Z,100124.72
2023-06-15T10:38:37.785Z,100123.00
2023-06-15T10:41:06.483Z,100127.78
2023-06-15T10:43:34.558Z,100116.53
2023-06-15T10:46:03.848Z,100116.81
2023-06-15T10:48:31.873Z,100123.13
2023-06-15T10:50:59.873Z,100123.34
2023-06-15T10:53:27.963Z,100120.69
2023-06-15T10:55:56.789Z,100115.72
2023-06-15T10:58:25.958Z,100117.50
2023-06-15T11:00:55.953Z,100115.25
2023-06-15T11:03:24.045Z,100126.25
2023-06-15T11:05:52.201Z,100128.47
2023-06-15T11:08:20.165Z,100131.19
2023-06-15T11:10:48.137Z,100115.19
2023-06-15T11:13:16.545Z,100124.31
2023-06-15T11:15:44.503Z,100124.00
2023-06-15T11:18:13.090Z,100131.31
2023-06-15T11:20:41.320Z,100135.88
2023-06-15T11:23:11.441Z,100134.34
2023-06-15T11:25:40.125Z,100136.66
2023-06-15T11:28:11.496Z,100142.06
2023-06-15T11:30:41.181Z,100148.13
2023-06-15T11:33:09.411Z,100139.66
2023-06-15T11:35:37.453Z,100138.50
2023-06-15T11:38:05.732Z,100133.84
2023-06-15T11:40:33.715Z,100144.50
2023-06-15T11:43:02.025Z,100135.72
2023-06-15T11:45:29.981Z,100131.38
2023-06-15T11:47:57.946Z,100138.78
2023-06-15T11:50:26.191Z,100133.31
2023-06-15T11:52:54.081Z,100132.00
2023-06-15T11:55:22.093Z,100137.88
2023-06-15T11:57:49.958Z,100130.91
2023-06-15T12:00:18.163Z,100130.47
2023-06-15T12:02:46.884Z,100132.31
2023-06-15T12:05:15.270Z,100124.59
2023-06-15T12:07:44.108Z,100120.84
2023-06-15T12:10:13.352Z,100117.00
2023-06-15T12:12:41.390Z,100116.84
2023-06-15T12:15:09.522Z,100115.34
2023-06-15T12:17:37.713Z,100111.38
2023-06-15T12:20:10.099Z,100105.91
2023-06-15T12:22:38.411Z,100107.25
2023-06-15T12:25:06.456Z,100101.56
2023-06-15T12:27:35.609Z,100095.66
2023-06-15T12:30:05.102Z,100094.50
2023-06-15T12:32:33.582Z,100102.81
2023-06-15T12:35:01.575Z,100095.97
2023-06-15T12:37:38.943Z,100092.22
2023-06-15T12:40:14.835Z,100092.88
2023-06-15T12:42:43.114Z,100088.84
2023-06-15T12:45:11.372Z,100084.53
2023-06-15T12:47:39.797Z,100080.47
2023-06-15T12:50:08.067Z,100083.31
2023-06-15T12:52:37.803Z,100078.00
2023-06-15T12:55:06.206Z,100075.28
2023-06-15T12:57:34.219Z,100070.59
2023-06-15T13:00:02.205Z,100069.75
2023-06-15T13:02:30.345Z,100066.31
2023-06-15T13:05:02.656Z,100070.50
2023-06-15T13:07:32.576Z,100066.38
2023-06-15T13:10:00.755Z,100062.22
2023-06-15T13:12:28.650Z,100064.97
2023-06-15T13:14:56.676Z,100062.97
2023-06-15T13:17:25.160Z,100064.34
2023-06-15T13:19:53.473Z,100061.81
2023-06-15T13:22:21.328Z,100060.88
2023-06-15T13:24:49.393Z,100064.06
2023-06-15T13:27:19.100Z,100061.25
2023-06-15T13:29:49.628Z,100058.06
2023-06-15T13:32:18.256Z,100051.72
2023-06-15T13:34:46.273Z,100049.84
2023-06-15T13:37:17.563Z,100049.09
2023-06-15T13:39:45.918Z,100049.94
2023-06-15T13:42:14.992Z,100045.59
2023-06-15T13:44:43.193Z,100043.66
2023-06-15T13:47:11.083Z,100046.44
2023-06-15T13:49:39.070Z,100045.63
2023-06-15T13:52:06.873Z,100047.81
2023-06-15T13:54:35.022Z,100052.25
2023-06-15T13:57:03.291Z,100035.91
2023-06-15T13:59:32.027Z,100040.28
2023-06-15T14:02:00.148Z,100032.00
2023-06-15T14:04:31.169Z,100028.41
2023-06-15T14:07:00.649Z,100043.13
2023-06-15T14:09:28.740Z,100037.84
2023-06-15T14:11:59.176Z,100034.53
2023-06-15T14:14:27.139Z,100034.19
2023-06-15T14:16:55.215Z,100034.47
2023-06-15T14:19:23.611Z,100026.72
2023-06-15T14:21:52.044Z,100022.34
2023-06-15T14:24:20.724Z,100024.25
2023-06-15T14:26:48.709Z,100018.66
2023-06-15T14:29:17.047Z,100022.19
2023-06-15T14:31:47.814Z,100014.78
2023-06-15T14:34:17.899Z,100015.16
2023-06-15T14:36:46.439Z,100015.03
2023-06-15T14:39:14.586Z,100010.53
2023-06-15T14:41:42.388Z,100013.88
2023-06-15T14:44:10.801Z,100021.00
2023-06-15T14:46:41.042Z,100005.56
2023-06-15T14:49:08.930Z,100009.03
2023-06-15T14:51:37.312Z,100016.94
2023-06-15T14:54:05.557Z,100009.72
2023-06-15T14:56:34.446Z,100012.88
2023-06-15T14:59:02.477Z,100004.53
2023-06-15T15:01:30.632Z,100011.38
2023-06-15T15:03:58.613Z,100008.78
2023-06-15T15:06:26.545Z,100011.78
2023-06-15T15:08:54.600Z,100001.16
2023-06-15T15:11:22.899Z,100008.16
2023-06-15T15:13:50.828Z,100012.06
2023-06-15T15:16:21.595Z,100005.28
2023-06-15T15:18:52.380Z,100015.53
2023-06-15T15:21:20.831Z,100019.72
2023-06-15T15:23:48.970Z,100015.69
2023-06-15T15:26:17.009Z,100006.03
2023-06-15T15:28:44.855Z,100010.41
2023-06-15T15:31:12.950Z,100004.47
2023-06-15T15:33:41.223Z,100008.91
2023-06-15T15:36:09.360Z,100013.00
2023-06-15T15:38:38.200Z,100008.94
2023-06-15T15:41:06.913Z,100003.75
2023-06-15T15:43:34.870Z,100007.94
2023-06-15T15:46:03.595Z,100002.34
2023-06-15T15:48:31.902Z,100002.28
2023-06-15T15:50:59.907Z,99991.94
2023-06-15T15:53:27.944Z,99995.94
2023-06-15T15:55:56.002Z,99995.00
2023-06-15T15:58:23.900Z,99991.16
2023-06-15T16:00:52.542Z,99984.59
2023-06-15T16:03:20.884Z,99976.03
2023-06-15T16:05:48.881Z,99975.63
2023-06-15T16:08:16.987Z,99974.53
2023-06-15T16:10:45.834Z,99977.13
2023-06-15T16:13:14.158Z,99973.94
2023-06-15T16:15:42.319Z,99977.44
2023-06-15T16:18:11.264Z,99973.34
2023-06-15T16:20:39.291Z,99973.69
2023-06-15T16:23:07.872Z,99968.66
2023-06-15T16:25:37.192Z,99972.41
2023-06-15T16:28:05.266Z,99971.88
2023-06-15T16:30:33.202Z,99979.13
2023-06-15T16:33:01.243Z,99978.81
2023-06-15T16:35:29.847Z,99980.13
2023-06-15T16:37:57.848Z,99977.41
2023-06-15T16:40:25.813Z,99982.13
2023-06-15T16:42:53.742Z,99967.13
2023-06-15T16:45:21.758Z,99978.13
2023-06-15T16:47:50.498Z,99973.75
2023-06-15T16:50:19.189Z,99976.31
2023-06-15T16:52:48.323Z,99976.13
2023-06-15T16:55:16.561Z,99976.19
2023-06-15T16:57:44.498Z,99978.94
2023-06-15T17:00:12.741Z,99972.00
2023-06-15T17:02:41.602Z,99974.47
2023-06-15T17:05:09.639Z,99972.50
2023-06-15T17:07:37.646Z,99971.22
2023-06-15T17:10:06.137Z,99969.78
2023-06-15T17:12:37.138Z,99979.38
2023-06-15T17:15:05.507Z,99975.91
2023-06-15T17:17:33.526Z,99978.00
2023-06-15T17:20:01.507Z,99979.66
2023-06-15T17:22:29.463Z,99984.00
2023-06-15T17:24:59.462Z,99986.25
2023-06-15T17:27:27.412Z,99979.63
2023-06-15T17:29:55.661Z,99985.19
2023-06-15T17:32:23.949Z,99988.06
2023-06-15T17:34:53.741Z,99985.78
2023-06-15T17:37:22.619Z,99990.06
2023-06-15T17:39:51.403Z,99988.63
2023-06-15T17:42:19.355Z,99986.56
2023-06-15T17:44:47.233Z,99991.66
2023-06-15T17:47:15.242Z,99991.91
2023-06-15T17:49:43.233Z,99991.09
2023-06-15T17:52:11.771Z,99996.59
2023-06-15T17:54:40.097Z,99996.59
2023-06-15T17:57:08.040Z,99998.31
2023-06-15T17:59:35.977Z,99991.22
2023-06-15T18:02:05.976Z,99997.50
2023-06-15T18:04:33.999Z,99991.22
2023-06-15T18:07:05.201Z,99993.72
2023-06-15T18:09:33.143Z,99999.22
2023-06-15T18:12:01.055Z,99997.34
2023-06-15T18:14:29.258Z,99999.22
2023-06-15T18:16:58.560Z,100002.59
2023-06-15T18:19:26.466Z,99999.66
2023-06-15T18:21:54.399Z,100003.44
2023-06-15T18:24:22.712Z,100003.47
2023-06-15T18:26:51.190Z,100001.94
2023-06-15T18:29:19.575Z,99999.44
2023-06-15T18:31:47.494Z,100005.09
2023-06-15T18:34:16.509Z,100009.69
2023-06-15T18:36:44.497Z,100010.75
2023-06-15T18:39:13.222Z,100010.09
2023-06-15T18:41:41.138Z,100012.81
2023-06-15T18:44:08.985Z,100013.81
2023-06-15T18:46:37.866Z,100015.69
2023-06-15T18:49:05.793Z,100011.50
2023-06-15T18:51:34.176Z,100013.31
2023-06-15T18:54:02.056Z,100017.91
2023-06-15T18:56:30.022Z,100017.03
2023-06-15T18:58:58.155Z,100018.25
2023-06-15T19:01:26.589Z,100014.03
2023-06-15T19:03:55.075Z,100016.31
2023-06-15T19:06:23.028Z,100013.94
2023-06-15T19:08:50.996Z,100012.22
2023-06-15T19:11:18.862Z,100018.84
2023-06-15T19:13:47.278Z,100010.22
2023-06-15T19:16:15.664Z,100017.66
2023-06-15T19:18:44.097Z,100020.75
2023-06-15T19:21:12.196Z,100015.66
2023-06-15T19:23:40.129Z,100015.38
2023-06-15T19:26:08.283Z,100022.81
2023-06-15T19:28:38.318Z,100023.13
2023-06-15T19:31:06.412Z,100034.09
2023-06-15T19:33:34.283Z,100033.41
2023-06-15T19:36:02.198Z,100035.84
2023-06-15T19:38:30.160Z,100033.72
2023-06-15T19:40:58.433Z,100038.06
2023-06-15T19:43:28.477Z,100038.38
2023-06-15T19:46:00.867Z,100034.94
2023-06-15T19:48:28.872Z,100041.50
2023-06-15T19:50:58.939Z,100049.13
2023-06-15T19:53:28.355Z,100046.69
2023-06-15T19:55:56.180Z,100049.03
2023-06-15T19:58:24.156Z,100054.38
2023-06-15T20:00:54.814Z,100052.97
2023-06-15T20:03:22.858Z,100055.13
2023-06-15T20:05:51.075Z,100052.72
2023-06-15T20:08:19.005Z,100055.50
2023-06-15T20:10:46.763Z,100057.94
2023-06-15T20:13:14.698Z,100064.09
2023-06-15T20:15:43.208Z,100063.53
2023-06-15T20:18:11.076Z,100065.41
2023-06-15T20:20:39.114Z,100061.28
2023-06-15T20:23:08.369Z,100079.50
2023-06-15T20:25:36.884Z,100077.50
2023-06-15T20:28:05.739Z,100078.22
2023-06-15T20:30:33.963Z,100077.44
2023-06-15T20:33:01.903Z,100074.63
2023-06-15T20:35:30.675Z,100086.09
2023-06-15T20:37:58.620Z,100082.56
2023-06-15T20:40:26.815Z,100084.91
2023-06-15T20:42:55.121Z,100083.22
2023-06-15T20:45:24.843Z,100081.88
2023-06-15T20:47:52.839Z,100087.34
2023-06-15T20:50:23.719Z,100082.88
2023-06-15T20:52:52.124Z,100083.75
2023-06-15T20:55:21.153Z,100094.78
2023-06-15T20:57:49.141Z,100088.94
2023-06-15T21:00:19.509Z,100091.38
2023-06-15T21:02:47.604Z,100093.78
2023-06-15T21:05:16.214Z,100091.47
2023-06-15T21:07:44.098Z,100098.09
2023-06-15T21:10:12.445Z,100096.63
2023-06-15T21:12:40.444Z,100091.09
2023-06-15T21:15:08.346Z,100094.59
2023-06-15T21:17:36.775Z,100094.47
2023-06-15T21:20:05.000Z,100095.63
2023-06-15T21:22:32.875Z,100087.88
2023-06-15T21:25:00.866Z,100096.31
2023-06-15T21:27:28.795Z,100093.13
2023-06-15T21:29:57.388Z,100103.25
2023-06-15T21:32:26.980Z,100105.09
2023-06-15T21:34:55.273Z,100100.72
2023-06-15T21:37:23.161Z,100097.84
2023-06-15T21:39:51.101Z,100091.44
2023-06-15T21:42:20.427Z,100101.22
2023-06-15T21:44:49.695Z,100095.66
2023-06-15T21:47:17.503Z,100093.63
2023-06-15T21:49:45.475Z,100101.38
2023-06-15T21:52:14.616Z,100101.88
2023-06-15T21:54:43.266Z,100095.28
2023-06-15T21:57:13.334Z,100098.31
2023-06-15T21:59:41.089Z,100086.38
2023-06-15T22:02:08.881Z,100096.00
2023-06-15T22:04:36.782Z,100093.09
2023-06-15T22:07:04.935Z,100092.94
2023-06-15T22:09:34.506Z,100094.59
2023-06-15T22:12:06.914Z,100095.63
2023-06-15T22:14:35.627Z,100094.97
2023-06-15T22:17:03.540Z,100093.28
2023-06-15T22:19:31.713Z,100095.13
2023-06-15T22:22:01.767Z,100092.44
2023-06-15T22:24:29.769Z,100094.28
2023-06-15T22:26:57.721Z,100104.25
2023-06-15T22:29:25.439Z,100102.38
2023-06-15T22:31:53.256Z,100097.19
2023-06-15T22:34:21.248Z,100095.47
2023-06-15T22:36:49.320Z,100092.13
2023-06-15T22:39:17.072Z,100088.59
2023-06-15T22:41:44.941Z,100097.38
2023-06-15T22:44:15.576Z,100097.91
2023-06-15T22:46:45.192Z,100103.97
2023-06-15T22:49:13.880Z,100108.00
2023-06-15T22:51:45.465Z,100107.50
2023-06-15T22:54:13.306Z,100107.69
2023-06-15T22:56:42.272Z,100113.91
2023-06-15T22:59:09.960Z,100107.50
2023-06-15T23:01:37.654Z,100114.25
2023-06-15T23:04:05.666Z,100109.88
2023-06-15T23:06:43.187Z,100101.09
2023-06-15T23:09:14.101Z,100111.38
2023-06-15T23:11:41.864Z,100103.09
2023-06-15T23:14:10.221Z,100110.53
2023-06-15T23:16:38.116Z,100107.84
2023-06-15T23:19:06.845Z,100104.31
2023-06-15T23:21:35.451Z,100107.00
2023-06-15T23:24:06.803Z,100088.94
2023-06-15T23:26:37.873Z,100096.03
2023-06-15T23:29:05.607Z,100098.72
2023-06-15T23:31:33.579Z,100090.63
2023-06-15T23:34:01.474Z,100102.78
2023-06-15T23:36:29.166Z,100107.34
2023-06-15T23:38:57.193Z,100102.94
2023-06-15T23:41:24.838Z,100099.59
2023-06-15T23:43:52.903Z,100099.06
2023-06-15T23:46:20.839Z,100098.00
2023-06-15T23:48:48.602Z,100096.63
2023-06-15T23:51:16.339Z,100095.94
2023-06-15T23:53:44.092Z,100098.78
2023-06-15T23:56:12.502Z,100100.44
2023-06-15T23:58:40.249Z,100101.44
